Celebrity Summit — 9HJC9 — position and weather

sailwx.info

Track history (hours):
 
Tides and Currents Weather Stations Pressure Air Temp Water Temp Dewpoint Dewpoint Depression Visibility Wind Speed Wind Dir Waves Ship Positions

Celebrity Summit

Last reported at 2019-Mar-25 23:55 UTC. Time now 2019-Mar-26 00:22 UTC.
Position N 18°28' W 066°06'.

Length 294 m; draft 8.3 m.

Type: Passenger vessel. MMSI: 249047000.

Date/timePositionNaut miles runAvg speedWind from/ knotsBaromVisibWave heightAir tempDewpointWater temp
2019-Mar-25 23:55N 18°28' W 066°06'0 0.0
2019-Mar-25 23:25N 18°28' W 066°06'0 0.0
2019-Mar-25 22:55N 18°28' W 066°06'0 0.0
2019-Mar-25 22:25N 18°28' W 066°06'0 0.0
2019-Mar-25 21:55N 18°28' W 066°06'0 0.0
2019-Mar-25 21:25N 18°28' W 066°06'0 0.0
2019-Mar-25 20:55N 18°28' W 066°06'0 0.0
2019-Mar-25 20:25N 18°28' W 066°06'0 0.0
2019-Mar-25 19:55N 18°28' W 066°06'0 0.0
2019-Mar-25 19:25N 18°28' W 066°06'615.0
2019-Mar-25 19:00N 18°24' W 066°00'692.8 090 / 221011.0 26.0 27.0
2019-Mar-25 18:55N 18°28' W 066°06'0 0.0
2019-Mar-25 18:25N 18°28' W 066°06'0 0.0
2019-Mar-25 17:55N 18°28' W 066°06'0 0.0
2019-Mar-25 17:25N 18°28' W 066°06'0 0.0
2019-Mar-25 16:55N 18°28' W 066°06'0 0.0
2019-Mar-25 16:25N 18°28' W 066°06'615.0
2019-Mar-25 16:00N 18°24' W 066°00'692.5 090 / 251015.0 25.0 24.0
2019-Mar-25 15:55N 18°28' W 066°06'0 0.0
2019-Mar-25 15:25N 18°28' W 066°06'0 0.0
2019-Mar-25 14:55N 18°28' W 066°06'0 0.0
2019-Mar-25 14:25N 18°28' W 066°06'0 0.0
2019-Mar-25 13:55N 18°28' W 066°06'0 0.0
2019-Mar-25 13:25N 18°28' W 066°06'0 0.0
2019-Mar-25 12:55N 18°28' W 066°06'0 0.0
2019-Mar-25 12:25N 18°28' W 066°06'615.0
2019-Mar-25 12:00N 18°24' W 066°00'693.2 100 / 181015.0 25.0
2019-Mar-25 11:55N 18°28' W 066°06'0 0.0
2019-Mar-25 11:25N 18°28' W 066°06'0 0.0
2019-Mar-25 10:55N 18°28' W 066°06'0 0.0
2019-Mar-25 10:25N 18°28' W 066°06'0 0.0
2019-Mar-25 09:55N 18°28' W 066°06'0 0.0
2019-Mar-25 09:31N 18°28' W 066°06'1 2.4
2019-Mar-25 09:00N 18°27' W 066°07'11 3.6
2019-Mar-25 06:00N 18°36' W 066°00'15 7.5 110 / 181014.0 26.0 25.0
2019-Mar-25 04:02N 18°39' W 065°45'3 6.7
2019-Mar-25 03:38N 18°38' W 065°42'1 6.8
2019-Mar-25 03:30N 18°38' W 065°41'3 6.7
2019-Mar-25 03:00N 18°38' W 065°37'3 6.6
2019-Mar-25 02:30N 18°37' W 065°34'3 6.7
2019-Mar-25 02:00N 18°37' W 065°30'3 7.0
2019-Mar-25 01:30N 18°36' W 065°27'3 6.7
2019-Mar-25 01:00N 18°36' W 065°23'3 6.8
2019-Mar-25 00:30N 18°36' W 065°20'3 6.7
2019-Mar-25 00:00N 18°34' W 065°16'5349.6
2019-Mar-25 00:00N 18°30' W 065°18'3 6.2 090 / 151015.0 25.0
2019-Mar-24 23:30N 18°31' W 065°15'3 6.7
2019-Mar-24 23:00N 18°28' W 065°14'4 7.0
2019-Mar-24 22:30N 18°25' W 065°12'3 6.9
2019-Mar-24 22:00N 18°22' W 065°11'3 6.8
2019-Mar-24 21:30N 18°19' W 065°10'3 6.5
2019-Mar-24 21:00N 18°16' W 065°09'3 6.3
2019-Mar-24 20:30N 18°13' W 065°07'3 6.4
2019-Mar-24 20:00N 18°10' W 065°06'3 6.7
2019-Mar-24 19:30N 18°07' W 065°04'3 7.0
2019-Mar-24 19:00N 18°04' W 065°03'3254.9
2019-Mar-24 19:00N 18°06' W 065°00'611.1 090 / 191014.0 26.0 25.0
2019-Mar-24 18:28N 18°00' W 065°01'5 6.3
2019-Mar-24 17:43N 17°59' W 064°56'2 7.0
2019-Mar-24 17:30N 17°60' W 064°54'9 7.8
2019-Mar-24 16:22N 18°02' W 064°45'11 1.6
2019-Mar-24 09:21N 18°13' W 064°42'4 9.9
2019-Mar-24 08:58N 18°12' W 064°45'5 9.8
2019-Mar-24 08:29N 18°11' W 064°50'5 9.7
2019-Mar-24 08:00N 18°12' W 064°55'5 9.8
2019-Mar-24 07:30N 18°13' W 065°00'5 9.9
2019-Mar-24 07:00N 18°15' W 065°05'5 9.3
2019-Mar-24 06:30N 18°17' W 065°09'510.5
2019-Mar-24 06:00N 18°22' W 065°12'5 9.9
2019-Mar-24 05:30N 18°26' W 065°15'510.6
2019-Mar-24 05:00N 18°30' W 065°19'611.1
2019-Mar-24 04:30N 18°33' W 065°23'611.0
2019-Mar-24 04:00N 18°35' W 065°29'611.1
2019-Mar-24 03:30N 18°36' W 065°34'511.0
2019-Mar-24 03:00N 18°38' W 065°40'510.9
2019-Mar-24 02:30N 18°39' W 065°46'23 8.5
2019-Mar-23 23:49N 18°30' W 066°08'3 8.5
2019-Mar-23 23:30N 18°27' W 066°07'1 2.2
2019-Mar-23 22:58N 18°28' W 066°06'0 0.0
2019-Mar-23 22:28N 18°28' W 066°06'0 0.0
2019-Mar-23 21:58N 18°28' W 066°06'0 0.0
2019-Mar-23 21:28N 18°28' W 066°06'0 0.1
2019-Mar-23 20:58N 18°28' W 066°06'0 0.1
2019-Mar-23 20:28N 18°28' W 066°06'0 0.0
2019-Mar-23 19:59N 18°28' W 066°06'0 0.0
2019-Mar-23 19:28N 18°28' W 066°06'0 0.0
2019-Mar-23 18:58N 18°28' W 066°06'0 0.0
2019-Mar-23 18:29N 18°28' W 066°06'0 0.0
2019-Mar-23 17:59N 18°28' W 066°06'0 0.0
2019-Mar-23 17:29N 18°28' W 066°06'0 0.0
2019-Mar-23 16:58N 18°28' W 066°06'0 0.0
2019-Mar-23 16:28N 18°28' W 066°06'0 0.0
2019-Mar-23 15:58N 18°28' W 066°06'0 0.0
2019-Mar-23 15:28N 18°28' W 066°06'0 0.0
2019-Mar-23 14:58N 18°28' W 066°06'0 0.0
2019-Mar-23 14:28N 18°28' W 066°06'0 0.0
2019-Mar-23 13:58N 18°28' W 066°06'0 0.0
2019-Mar-23 13:28N 18°28' W 066°06'0 0.0
2019-Mar-23 12:58N 18°28' W 066°06'0 0.0
2019-Mar-23 12:28N 18°28' W 066°06'0 0.0
2019-Mar-23 11:58N 18°28' W 066°06'0 0.0
2019-Mar-23 11:28N 18°28' W 066°06'0 0.0
2019-Mar-23 10:59N 18°28' W 066°06'0 0.0
2019-Mar-23 10:28N 18°28' W 066°06'0 0.0
2019-Mar-23 09:58N 18°28' W 066°06'0 0.0
2019-Mar-23 09:28N 18°28' W 066°06'0 0.0
2019-Mar-23 08:58N 18°28' W 066°06'0 0.0
2019-Mar-23 08:28N 18°28' W 066°06'0 0.0
2019-Mar-23 07:58N 18°28' W 066°06'0 0.0
2019-Mar-23 07:28N 18°28' W 066°06'0 0.0
2019-Mar-23 06:58N 18°28' W 066°06'0 0.0
2019-Mar-23 06:25N 18°28' W 066°06'0 0.0
2019-Mar-23 05:56N 18°28' W 066°06'0 0.0
2019-Mar-23 05:28N 18°28' W 066°06'0 0.0
2019-Mar-23 04:58N 18°28' W 066°06'0 0.0
2019-Mar-23 04:28N 18°28' W 066°06'0 0.0
2019-Mar-23 03:59N 18°28' W 066°06'0 0.0
2019-Mar-23 03:28N 18°28' W 066°06'0 0.0
2019-Mar-23 02:58N 18°28' W 066°06'0 0.0
2019-Mar-23 02:28N 18°28' W 066°06'0 0.0
2019-Mar-23 01:58N 18°28' W 066°06'0 0.0
2019-Mar-23 01:28N 18°28' W 066°06'0 0.0
2019-Mar-23 00:58N 18°28' W 066°06'0 0.0
2019-Mar-23 00:28N 18°28' W 066°06'0 0.0
2019-Mar-22 23:58N 18°28' W 066°06'0 0.0
2019-Mar-22 23:28N 18°28' W 066°06'0 0.0
2019-Mar-22 22:58N 18°28' W 066°06'0 0.0
2019-Mar-22 22:28N 18°28' W 066°06'0 0.0
2019-Mar-22 21:58N 18°28' W 066°06'0 0.0
2019-Mar-22 21:28N 18°28' W 066°06'0 0.0
2019-Mar-22 20:58N 18°28' W 066°06'0 0.0
2019-Mar-22 20:28N 18°28' W 066°06'0 0.0
2019-Mar-22 19:58N 18°28' W 066°06'0 0.0
2019-Mar-22 19:28N 18°28' W 066°06'0 0.0
2019-Mar-22 18:58N 18°28' W 066°06'0 0.0
2019-Mar-22 18:28N 18°28' W 066°06'0 0.0
2019-Mar-22 17:58N 18°28' W 066°06'0 0.0
2019-Mar-22 17:28N 18°28' W 066°06'0 0.0
2019-Mar-22 16:58N 18°28' W 066°06'0 0.0
2019-Mar-22 16:28N 18°28' W 066°06'0 0.0
2019-Mar-22 15:58N 18°28' W 066°06'0 0.0
2019-Mar-22 15:28N 18°28' W 066°06'0 0.0
2019-Mar-22 14:58N 18°28' W 066°06'0 0.0
2019-Mar-22 14:28N 18°28' W 066°06'0 0.0
2019-Mar-22 13:58N 18°28' W 066°06'0 0.0
2019-Mar-22 13:29N 18°28' W 066°06'0 0.0
2019-Mar-22 12:58N 18°28' W 066°06'0 0.0
2019-Mar-22 12:25N 18°28' W 066°06'0 0.0
2019-Mar-22 11:58N 18°28' W 066°06'0 0.0
2019-Mar-22 11:28N 18°28' W 066°06'0 0.0
2019-Mar-22 10:58N 18°28' W 066°06'0 0.0
2019-Mar-22 10:29N 18°28' W 066°06'0 0.1
2019-Mar-22 10:00N 18°28' W 066°06'1 2.3
2019-Mar-22 09:30N 18°27' W 066°07'  
Track history (hours):
 
Tides and Currents Weather Stations Pressure Air Temp Water Temp Dewpoint Dewpoint Depression Visibility Wind Speed Wind Dir Waves Ship Positions

Celebrity Summit

Last reported at 2019-Mar-25 23:55 UTC. Time now 2019-Mar-26 00:22 UTC.
Position N 18°28' W 066°06'.

Length 294 m; draft 8.3 m.

Type: Passenger vessel. MMSI: 249047000.

Date/timePositionNaut miles runAvg speedWind from/ knotsBaromVisibWave heightAir tempDewpointWater temp
2019-Mar-25 23:55N 18°28' W 066°06'0 0.0
2019-Mar-25 23:25N 18°28' W 066°06'0 0.0
2019-Mar-25 22:55N 18°28' W 066°06'0 0.0
2019-Mar-25 22:25N 18°28' W 066°06'0 0.0
2019-Mar-25 21:55N 18°28' W 066°06'0 0.0
2019-Mar-25 21:25N 18°28' W 066°06'0 0.0
2019-Mar-25 20:55N 18°28' W 066°06'0 0.0
2019-Mar-25 20:25N 18°28' W 066°06'0 0.0
2019-Mar-25 19:55N 18°28' W 066°06'0 0.0
2019-Mar-25 19:25N 18°28' W 066°06'615.0
2019-Mar-25 19:00N 18°24' W 066°00'692.8 090 / 221011.0 26.0 27.0
2019-Mar-25 18:55N 18°28' W 066°06'0 0.0
2019-Mar-25 18:25N 18°28' W 066°06'0 0.0
2019-Mar-25 17:55N 18°28' W 066°06'0 0.0
2019-Mar-25 17:25N 18°28' W 066°06'0 0.0
2019-Mar-25 16:55N 18°28' W 066°06'0 0.0
2019-Mar-25 16:25N 18°28' W 066°06'615.0
2019-Mar-25 16:00N 18°24' W 066°00'692.5 090 / 251015.0 25.0 24.0
2019-Mar-25 15:55N 18°28' W 066°06'0 0.0
2019-Mar-25 15:25N 18°28' W 066°06'0 0.0
2019-Mar-25 14:55N 18°28' W 066°06'0 0.0
2019-Mar-25 14:25N 18°28' W 066°06'0 0.0
2019-Mar-25 13:55N 18°28' W 066°06'0 0.0
2019-Mar-25 13:25N 18°28' W 066°06'0 0.0
2019-Mar-25 12:55N 18°28' W 066°06'0 0.0
2019-Mar-25 12:25N 18°28' W 066°06'615.0
2019-Mar-25 12:00N 18°24' W 066°00'693.2 100 / 181015.0 25.0
2019-Mar-25 11:55N 18°28' W 066°06'0 0.0
2019-Mar-25 11:25N 18°28' W 066°06'0 0.0
2019-Mar-25 10:55N 18°28' W 066°06'0 0.0
2019-Mar-25 10:25N 18°28' W 066°06'0 0.0
2019-Mar-25 09:55N 18°28' W 066°06'0 0.0
2019-Mar-25 09:31N 18°28' W 066°06'1 2.4
2019-Mar-25 09:00N 18°27' W 066°07'11 3.6
2019-Mar-25 06:00N 18°36' W 066°00'15 7.5 110 / 181014.0 26.0 25.0
2019-Mar-25 04:02N 18°39' W 065°45'3 6.7
2019-Mar-25 03:38N 18°38' W 065°42'1 6.8
2019-Mar-25 03:30N 18°38' W 065°41'3 6.7
2019-Mar-25 03:00N 18°38' W 065°37'3 6.6
2019-Mar-25 02:30N 18°37' W 065°34'3 6.7
2019-Mar-25 02:00N 18°37' W 065°30'3 7.0
2019-Mar-25 01:30N 18°36' W 065°27'3 6.7
2019-Mar-25 01:00N 18°36' W 065°23'3 6.8
2019-Mar-25 00:30N 18°36' W 065°20'3 6.7
2019-Mar-25 00:00N 18°34' W 065°16'5349.6
2019-Mar-25 00:00N 18°30' W 065°18'3 6.2 090 / 151015.0 25.0
2019-Mar-24 23:30N 18°31' W 065°15'3 6.7
2019-Mar-24 23:00N 18°28' W 065°14'4 7.0
2019-Mar-24 22:30N 18°25' W 065°12'3 6.9
2019-Mar-24 22:00N 18°22' W 065°11'3 6.8
2019-Mar-24 21:30N 18°19' W 065°10'3 6.5
2019-Mar-24 21:00N 18°16' W 065°09'3 6.3
2019-Mar-24 20:30N 18°13' W 065°07'3 6.4
2019-Mar-24 20:00N 18°10' W 065°06'3 6.7
2019-Mar-24 19:30N 18°07' W 065°04'3 7.0
2019-Mar-24 19:00N 18°04' W 065°03'3254.9
2019-Mar-24 19:00N 18°06' W 065°00'611.1 090 / 191014.0 26.0 25.0
2019-Mar-24 18:28N 18°00' W 065°01'5 6.3
2019-Mar-24 17:43N 17°59' W 064°56'2 7.0
2019-Mar-24 17:30N 17°60' W 064°54'9 7.8
2019-Mar-24 16:22N 18°02' W 064°45'11 1.6
2019-Mar-24 09:21N 18°13' W 064°42'4 9.9
2019-Mar-24 08:58N 18°12' W 064°45'5 9.8
2019-Mar-24 08:29N 18°11' W 064°50'5 9.7
2019-Mar-24 08:00N 18°12' W 064°55'5 9.8
2019-Mar-24 07:30N 18°13' W 065°00'5 9.9
2019-Mar-24 07:00N 18°15' W 065°05'5 9.3
2019-Mar-24 06:30N 18°17' W 065°09'510.5
2019-Mar-24 06:00N 18°22' W 065°12'5 9.9
2019-Mar-24 05:30N 18°26' W 065°15'510.6
2019-Mar-24 05:00N 18°30' W 065°19'611.1
2019-Mar-24 04:30N 18°33' W 065°23'611.0
2019-Mar-24 04:00N 18°35' W 065°29'611.1
2019-Mar-24 03:30N 18°36' W 065°34'511.0
2019-Mar-24 03:00N 18°38' W 065°40'510.9
2019-Mar-24 02:30N 18°39' W 065°46'23 8.5
2019-Mar-23 23:49N 18°30' W 066°08'3 8.5
2019-Mar-23 23:30N 18°27' W 066°07'1 2.2
2019-Mar-23 22:58N 18°28' W 066°06'0 0.0
2019-Mar-23 22:28N 18°28' W 066°06'0 0.0
2019-Mar-23 21:58N 18°28' W 066°06'0 0.0
2019-Mar-23 21:28N 18°28' W 066°06'0 0.1
2019-Mar-23 20:58N 18°28' W 066°06'0 0.1
2019-Mar-23 20:28N 18°28' W 066°06'0 0.0
2019-Mar-23 19:59N 18°28' W 066°06'0 0.0
2019-Mar-23 19:28N 18°28' W 066°06'0 0.0
2019-Mar-23 18:58N 18°28' W 066°06'0 0.0
2019-Mar-23 18:29N 18°28' W 066°06'0 0.0
2019-Mar-23 17:59N 18°28' W 066°06'0 0.0
2019-Mar-23 17:29N 18°28' W 066°06'0 0.0
2019-Mar-23 16:58N 18°28' W 066°06'0 0.0
2019-Mar-23 16:28N 18°28' W 066°06'0 0.0
2019-Mar-23 15:58N 18°28' W 066°06'0 0.0
2019-Mar-23 15:28N 18°28' W 066°06'0 0.0
2019-Mar-23 14:58N 18°28' W 066°06'0 0.0
2019-Mar-23 14:28N 18°28' W 066°06'0 0.0
2019-Mar-23 13:58N 18°28' W 066°06'0 0.0
2019-Mar-23 13:28N 18°28' W 066°06'0 0.0
2019-Mar-23 12:58N 18°28' W 066°06'0 0.0
2019-Mar-23 12:28N 18°28' W 066°06'0 0.0
2019-Mar-23 11:58N 18°28' W 066°06'0 0.0
2019-Mar-23 11:28N 18°28' W 066°06'0 0.0
2019-Mar-23 10:59N 18°28' W 066°06'0 0.0
2019-Mar-23 10:28N 18°28' W 066°06'0 0.0
2019-Mar-23 09:58N 18°28' W 066°06'0 0.0
2019-Mar-23 09:28N 18°28' W 066°06'0 0.0
2019-Mar-23 08:58N 18°28' W 066°06'0 0.0
2019-Mar-23 08:28N 18°28' W 066°06'0 0.0
2019-Mar-23 07:58N 18°28' W 066°06'0 0.0
2019-Mar-23 07:28N 18°28' W 066°06'0 0.0
2019-Mar-23 06:58N 18°28' W 066°06'0 0.0
2019-Mar-23 06:25N 18°28' W 066°06'0 0.0
2019-Mar-23 05:56N 18°28' W 066°06'0 0.0
2019-Mar-23 05:28N 18°28' W 066°06'0 0.0
2019-Mar-23 04:58N 18°28' W 066°06'0 0.0
2019-Mar-23 04:28N 18°28' W 066°06'0 0.0
2019-Mar-23 03:59N 18°28' W 066°06'0 0.0
2019-Mar-23 03:28N 18°28' W 066°06'0 0.0
2019-Mar-23 02:58N 18°28' W 066°06'0 0.0
2019-Mar-23 02:28N 18°28' W 066°06'0 0.0
2019-Mar-23 01:58N 18°28' W 066°06'0 0.0
2019-Mar-23 01:28N 18°28' W 066°06'0 0.0
2019-Mar-23 00:58N 18°28' W 066°06'0 0.0
2019-Mar-23 00:28N 18°28' W 066°06'0 0.0
2019-Mar-22 23:58N 18°28' W 066°06'0 0.0
2019-Mar-22 23:28N 18°28' W 066°06'0 0.0
2019-Mar-22 22:58N 18°28' W 066°06'0 0.0
2019-Mar-22 22:28N 18°28' W 066°06'0 0.0
2019-Mar-22 21:58N 18°28' W 066°06'0 0.0
2019-Mar-22 21:28N 18°28' W 066°06'0 0.0
2019-Mar-22 20:58N 18°28' W 066°06'0 0.0
2019-Mar-22 20:28N 18°28' W 066°06'0 0.0
2019-Mar-22 19:58N 18°28' W 066°06'0 0.0
2019-Mar-22 19:28N 18°28' W 066°06'0 0.0
2019-Mar-22 18:58N 18°28' W 066°06'0 0.0
2019-Mar-22 18:28N 18°28' W 066°06'0 0.0
2019-Mar-22 17:58N 18°28' W 066°06'0 0.0
2019-Mar-22 17:28N 18°28' W 066°06'0 0.0
2019-Mar-22 16:58N 18°28' W 066°06'0 0.0
2019-Mar-22 16:28N 18°28' W 066°06'0 0.0
2019-Mar-22 15:58N 18°28' W 066°06'0 0.0
2019-Mar-22 15:28N 18°28' W 066°06'0 0.0
2019-Mar-22 14:58N 18°28' W 066°06'0 0.0
2019-Mar-22 14:28N 18°28' W 066°06'0 0.0
2019-Mar-22 13:58N 18°28' W 066°06'0 0.0
2019-Mar-22 13:29N 18°28' W 066°06'0 0.0
2019-Mar-22 12:58N 18°28' W 066°06'0 0.0
2019-Mar-22 12:25N 18°28' W 066°06'0 0.0
2019-Mar-22 11:58N 18°28' W 066°06'0 0.0
2019-Mar-22 11:28N 18°28' W 066°06'0 0.0
2019-Mar-22 10:58N 18°28' W 066°06'0 0.0
2019-Mar-22 10:29N 18°28' W 066°06'0 0.1
2019-Mar-22 10:00N 18°28' W 066°06'1 2.3
2019-Mar-22 09:30N 18°27' W 066°07'  

Dump ship's entire track history